| time (UTC) | temp C | wind direction | speed KPH | gust KPH | rain 1hr cm | rain 24hr cm | rain mn cm | humidity % | barometer mb |
| 20260508044327 | 22 | 0 | 0.0 | 0.0 | 0.00 | 0.00 | 0.00 | 16 | 1009.2 |
| 20260508043325 | 23 | 0 | 0.0 | 0.0 | 0.00 | 0.00 | 0.00 | 16 | 1009.2 |
| 20260508042251 | 23 | 359 | 0.0 | 0.0 | 0.00 | 0.00 | 0.00 | 16 | 1009.1 |
| 20260508041303 | 23 | 358 | 0.0 | 1.6 | 0.00 | 0.00 | 0.00 | 16 | 1009.1 |
| 20260508040310 | 23 | 323 | 0.0 | 0.0 | 0.00 | 0.00 | 0.00 | 15 | 1009.1 |
| 20260508034128 | 23 | 26 | 0.0 | 0.0 | 0.00 | 0.00 | 0.00 | 15 | 1008.8 |
| 20260508033146 | 23 | 26 | 0.0 | 0.0 | 0.00 | 0.00 | 0.00 | 15 | 1008.6 |
| 20260508032154 | 24 | 333 | 0.0 | 0.0 | 0.00 | 0.00 | 0.00 | 15 | 1008.4 |
| 20260508031148 | 25 | 333 | 0.0 | 0.0 | 0.00 | 0.00 | 0.00 | 14 | 1008.3 |
| 20260508030156 | 26 | 333 | 0.0 | 0.0 | 0.00 | 0.00 | 0.00 | 14 | 1008.1 |
| 20260508025128 | 26 | 333 | 0.0 | 0.0 | 0.00 | 0.00 | 0.00 | 13 | 1007.9 |
| 20260508024141 | 27 | 317 | 0.0 | 0.0 | 0.00 | 0.00 | 0.00 | 13 | 1007.8 |
| 20260508023129 | 28 | 184 | 0.0 | 0.0 | 0.00 | 0.00 | 0.00 | 12 | 1007.6 |
| 20260508022133 | 28 | 183 | 1.6 | 9.7 | 0.00 | 0.00 | 0.00 | 12 | 1007.6 |
| 20260508021124 | 28 | 238 | 3.2 | 9.7 | 0.00 | 0.00 | 0.00 | 12 | 1007.5 |
| 20260508020133 | 29 | 237 | 1.6 | 16.1 | 0.00 | 0.00 | 0.00 | 12 | 1007.3 |
| 20260508015103 | 29 | 246 | 4.8 | 16.1 | 0.00 | 0.00 | 0.00 | 11 | 1007.1 |
| 20260508014106 | 29 | 240 | 3.2 | 16.1 | 0.00 | 0.00 | 0.00 | 11 | 1007.0 |
| 20260508011904 | 30 | 198 | 8.0 | 17.7 | 0.00 | 0.00 | 0.00 | 11 | 1007.0 |
| 20260508010924 | 31 | 221 | 8.0 | 17.7 | 0.00 | 0.00 | 0.00 | 10 | 1006.9 |
| 20260508005857 | 31 | 214 | 9.7 | 24.1 | 0.00 | 0.00 | 0.00 | 10 | 1006.9 |
| 20260508004918 | 31 | 191 | 9.7 | 24.1 | 0.00 | 0.00 | 0.00 | 10 | 1006.8 |
| 20260508003909 | 31 | 222 | 8.0 | 17.7 | 0.00 | 0.00 | 0.00 | 10 | 1006.8 |
| 20260508002907 | 32 | 225 | 8.0 | 17.7 | 0.00 | 0.00 | 0.00 | 9 | 1006.8 |
| 20260508001926 | 32 | 226 | 8.0 | 17.7 | 0.00 | 0.00 | 0.00 | 9 | 1006.7 |
| 20260508000914 | 32 | 235 | 8.0 | 17.7 | 0.00 | 0.00 | 0.00 | 10 | 1006.8 |
| 20260507235912 | 32 | 229 | 6.4 | 17.7 | 0.00 | 0.00 | 0.00 | 9 | 1006.9 |
| 20260507234930 | 32 | 193 | 6.4 | 20.9 | 0.00 | 0.00 | 0.00 | 9 | 1006.9 |
| 20260507233914 | 32 | 227 | 6.4 | 20.9 | 0.00 | 0.00 | 0.00 | 9 | 1007.0 |
| 20260507231710 | 32 | 287 | 9.7 | 20.9 | 0.00 | 0.00 | 0.00 | 9 | 1007.0 |
| 20260507230701 | 32 | 203 | 8.0 | 25.7 | 0.00 | 0.00 | 0.00 | 9 | 1006.9 |
| 20260507225627 | 32 | 274 | 11.3 | 25.7 | 0.00 | 0.00 | 0.00 | 9 | 1007.0 |
| 20260507224643 | 32 | 205 | 1.6 | 11.3 | 0.00 | 0.00 | 0.00 | 8 | 1007.0 |
| 20260507223656 | 33 | 280 | 4.8 | 16.1 | 0.00 | 0.00 | 0.00 | 7 | 1007.0 |
| 20260507222709 | 33 | 179 | 4.8 | 16.1 | 0.00 | 0.00 | 0.00 | 8 | 1007.2 |
| 20260507221723 | 32 | 205 | 6.4 | 16.1 | 0.00 | 0.00 | 0.00 | 8 | 1007.3 |
| 20260507220708 | 32 | 243 | 8.0 | 24.1 | 0.00 | 0.00 | 0.00 | 8 | 1007.4 |
| 20260507214531 | 32 | 231 | 11.3 | 24.1 | 0.00 | 0.00 | 0.00 | 8 | 1007.7 |
| 20260507212401 | 33 | 137 | 3.2 | 11.3 | 0.00 | 0.00 | 0.00 | 7 | 1008.1 |
| 20260507211414 | 32 | 134 | 1.6 | 8.0 | 0.00 | 0.00 | 0.00 | 7 | 1008.3 |
| 20260507210406 | 32 | 232 | 1.6 | 11.3 | 0.00 | 0.00 | 0.00 | 7 | 1008.6 |
| 20260507205401 | 31 | 163 | 4.8 | 12.9 | 0.00 | 0.00 | 0.00 | 6 | 1008.8 |
| 20260507204352 | 31 | 156 | 4.8 | 16.1 | 0.00 | 0.00 | 0.00 | 6 | 1008.9 |
| 20260507203415 | 32 | 345 | 3.2 | 16.1 | 0.00 | 0.00 | 0.00 | 7 | 1009.1 |
| 20260507200156 | 31 | 263 | 4.8 | 14.5 | 0.00 | 0.00 | 0.00 | 6 | 1009.5 |
| 20260507194017 | 31 | 128 | 3.2 | 17.7 | 0.00 | 0.00 | 0.00 | 7 | 1009.9 |
| 20260507193007 | 31 | 8 | 4.8 | 19.3 | 0.00 | 0.00 | 0.00 | 7 | 1010.2 |
| 20260507191946 | 31 | 27 | 4.8 | 19.3 | 0.00 | 0.00 | 0.00 | 7 | 1010.4 |
| 20260507190914 | 31 | 12 | 3.2 | 20.9 | 0.00 | 0.00 | 0.00 | 8 | 1010.4 |
| 20260507185932 | 31 | 320 | 4.8 | 20.9 | 0.00 | 0.00 | 0.00 | 8 | 1010.8 |
| 20260507184945 | 30 | 207 | 4.8 | 20.9 | 0.00 | 0.00 | 0.00 | 8 | 1010.8 |
| 20260507183954 | 30 | 2 | 9.7 | 20.9 | 0.00 | 0.00 | 0.00 | 8 | 1010.9 |
| 20260507182953 | 30 | 328 | 8.0 | 22.5 | 0.00 | 0.00 | 0.00 | 9 | 1011.1 |
| 20260507180926 | 30 | 39 | 9.7 | 25.7 | 0.00 | 0.00 | 0.00 | 10 | 1011.5 |
| 20260507175906 | 30 | 352 | 8.0 | 19.3 | 0.00 | 0.00 | 0.00 | 10 | 1011.6 |
| 20260507174926 | 30 | 250 | 3.2 | 19.3 | 0.00 | 0.00 | 0.00 | 11 | 1011.5 |
| 20260507173900 | 29 | 36 | 4.8 | 17.7 | 0.00 | 0.00 | 0.00 | 11 | 1011.7 |
| 20260507172900 | 29 | 347 | 6.4 | 24.1 | 0.00 | 0.00 | 0.00 | 11 | 1011.9 |
| 20260507170808 | 29 | 35 | 4.8 | 20.9 | 0.00 | 0.00 | 0.00 | 11 | 1011.9 |
| 20260507165742 | 29 | 30 | 9.7 | 20.9 | 0.00 | 0.00 | 0.00 | 11 | 1011.9 |
| 20260507163616 | 28 | 337 | 6.4 | 25.7 | 0.00 | 0.00 | 0.00 | 11 | 1011.9 |
| 20260507162544 | 28 | 23 | 4.8 | 25.7 | 0.00 | 0.00 | 0.00 | 11 | 1011.9 |
| 20260507160441 | 27 | 339 | 11.3 | 24.1 | 0.00 | 0.00 | 0.00 | 11 | 1012.3 |
| 20260507155446 | 27 | 15 | 6.4 | 24.1 | 0.00 | 0.00 | 0.00 | 11 | 1012.2 |
| 20260507154420 | 27 | 287 | 8.0 | 24.1 | 0.00 | 0.00 | 0.00 | 11 | 1012.2 |
| 20260507153405 | 26 | 55 | 12.9 | 29.0 | 0.00 | 0.00 | 0.00 | 12 | 1012.3 |
| 20260507152424 | 26 | 4 | 17.7 | 40.2 | 0.00 | 0.00 | 0.00 | 11 | 1012.4 |
| 20260507151410 | 25 | 24 | 17.7 | 40.2 | 0.00 | 0.00 | 0.00 | 12 | 1012.4 |
| 20260507150345 | 25 | 44 | 19.3 | 37.0 | 0.00 | 0.00 | 0.00 | 12 | 1012.5 |
| 20260507145404 | 25 | 43 | 16.1 | 30.6 | 0.00 | 0.00 | 0.00 | 12 | 1012.4 |
| 20260507144345 | 25 | 44 | 12.9 | 29.0 | 0.00 | 0.00 | 0.00 | 12 | 1012.5 |
| 20260507142256 | 25 | 66 | 14.5 | 40.2 | 0.00 | 0.00 | 0.00 | 11 | 1012.5 |
| 20260507141246 | 24 | 5 | 19.3 | 40.2 | 0.00 | 0.00 | 0.00 | 11 | 1012.4 |
| 20260507140242 | 23 | 43 | 22.5 | 37.0 | 0.00 | 0.00 | 0.00 | 12 | 1012.3 |
| 20260507135242 | 23 | 34 | 19.3 | 41.8 | 0.00 | 0.00 | 0.00 | 12 | 1012.3 |
| 20260507133109 | 23 | 55 | 24.1 | 37.0 | 0.00 | 0.00 | 0.00 | 13 | 1012.1 |
| 20260507132134 | 23 | 47 | 20.9 | 37.0 | 0.00 | 0.00 | 0.00 | 13 | 1012.2 |
| 20260507131137 | 22 | 11 | 19.3 | 33.8 | 0.00 | 0.00 | 0.00 | 14 | 1012.2 |
| 20260507130123 | 21 | 10 | 8.0 | 24.1 | 0.00 | 0.00 | 0.00 | 17 | 1012.1 |
| 20260507125139 | 20 | 32 | 3.2 | 12.9 | 0.00 | 0.00 | 0.00 | 24 | 1012.1 |
| 20260507124105 | 20 | 25 | 4.8 | 11.3 | 0.00 | 0.00 | 0.00 | 25 | 1012.3 |
| 20260507123040 | 21 | 290 | 3.2 | 14.5 | 0.00 | 0.00 | 0.00 | 25 | 1012.3 |
| 20260507122030 | 20 | 20 | 6.4 | 17.7 | 0.00 | 0.00 | 0.00 | 27 | 1012.4 |
| 20260507121004 | 20 | 4 | 11.3 | 17.7 | 0.00 | 0.00 | 0.00 | 28 | 1012.5 |
| 20260507120019 | 20 | 24 | 9.7 | 14.5 | 0.00 | 0.00 | 0.00 | 28 | 1012.5 |
| 20260507113927 | 20 | 18 | 9.7 | 16.1 | 0.00 | 0.00 | 0.00 | 28 | 1012.8 |
| 20260507112926 | 19 | 15 | 9.7 | 14.5 | 0.00 | 0.00 | 0.00 | 29 | 1012.8 |
| 20260507111935 | 18 | 7 | 8.0 | 17.7 | 0.00 | 0.00 | 0.00 | 29 | 1012.9 |
| 20260507110947 | 18 | 340 | 11.3 | 17.7 | 0.00 | 0.00 | 0.00 | 29 | 1012.8 |
| 20260507105932 | 18 | 349 | 8.0 | 16.1 | 0.00 | 0.00 | 0.00 | 30 | 1013.0 |
| 20260507104922 | 18 | 11 | 6.4 | 12.9 | 0.00 | 0.00 | 0.00 | 30 | 1013.0 |
| 20260507103932 | 18 | 7 | 4.8 | 11.3 | 0.00 | 0.00 | 0.00 | 30 | 1013.2 |
| 20260507100559 | 17 | 14 | 9.7 | 19.3 | 0.00 | 0.00 | 0.00 | 31 | 1013.4 |
| 20260507094344 | 18 | 330 | 9.7 | 17.7 | 0.00 | 0.00 | 0.00 | 30 | 1013.4 |
| 20260507093325 | 18 | 323 | 9.7 | 16.1 | 0.00 | 0.00 | 0.00 | 30 | 1013.4 |
| 20260507092335 | 17 | 318 | 11.3 | 17.7 | 0.00 | 0.00 | 0.00 | 31 | 1013.5 |
| 20260507091349 | 17 | 20 | 8.0 | 17.7 | 0.00 | 0.00 | 0.00 | 31 | 1013.6 |
| 20260507085145 | 18 | 29 | 8.0 | 17.7 | 0.00 | 0.00 | 0.00 | 30 | 1013.8 |
| 20260507084135 | 18 | 3 | 8.0 | 17.7 | 0.00 | 0.00 | 0.00 | 30 | 1013.8 |
| 20260507083111 | 18 | 332 | 8.0 | 14.5 | 0.00 | 0.00 | 0.00 | 30 | 1013.8 |
| 20260507082115 | 18 | 335 | 9.7 | 14.5 | 0.00 | 0.00 | 0.00 | 29 | 1013.8 |
| 20260507081057 | 18 | 338 | 8.0 | 16.1 | 0.00 | 0.00 | 0.00 | 29 | 1013.8 |
| 20260507074946 | 18 | 333 | 6.4 | 14.5 | 0.00 | 0.00 | 0.00 | 30 | 1014.0 |
| 20260507073946 | 18 | 4 | 8.0 | 14.5 | 0.00 | 0.00 | 0.00 | 30 | 1014.0 |
| 20260507072930 | 19 | 347 | 4.8 | 12.9 | 0.00 | 0.00 | 0.00 | 29 | 1014.1 |
| 20260507071859 | 19 | 13 | 8.0 | 12.9 | 0.00 | 0.00 | 0.00 | 29 | 1014.2 |
| 20260507065809 | 18 | 323 | 6.4 | 11.3 | 0.00 | 0.00 | 0.00 | 30 | 1014.2 |
| 20260507064833 | 17 | 4 | 1.6 | 8.0 | 0.00 | 0.00 | 0.00 | 31 | 1014.2 |
| 20260507063801 | 18 | 347 | 1.6 | 8.0 | 0.00 | 0.00 | 0.00 | 31 | 1014.1 |
| 20260507062756 | 17 | 56 | 0.0 | 0.0 | 0.00 | 0.00 | 0.00 | 32 | 1014.1 |
| 20260507061738 | 17 | 58 | 0.0 | 0.0 | 0.00 | 0.00 | 0.00 | 32 | 1014.1 |
| 20260507060704 | 18 | 26 | 0.0 | 3.2 | 0.00 | 0.00 | 0.00 | 30 | 1014.1 |
| 20260507055647 | 17 | 56 | 0.0 | 0.0 | 0.00 | 0.00 | 0.00 | 31 | 1014.1 |
| 20260507054621 | 17 | 16 | 0.0 | 1.6 | 0.00 | 0.00 | 0.00 | 31 | 1014.0 |
| 20260507053601 | 18 | 16 | 0.0 | 0.0 | 0.00 | 0.00 | 0.00 | 31 | 1014.0 |
| 20260507052535 | 18 | 16 | 0.0 | 0.0 | 0.00 | 0.00 | 0.00 | 31 | 1014.0 |
| 20260507051504 | 18 | 16 | 0.0 | 0.0 | 0.00 | 0.00 | 0.00 | 31 | 1014.0 |
| 20260507050508 | 18 | 16 | 0.0 | 0.0 | 0.00 | 0.00 | 0.00 | 31 | 1014.0 |
| 20260507045448 | 18 | 16 | 0.0 | 0.0 | 0.00 | 0.00 | 0.00 | 30 | 1014.0 |